Terminal Aerodrome Forecast
Issued by NWS Sioux Falls, SD

Home | Current Version | Previous Version | Text Only | Print | Product List | Glossary On
Versions: 1 2 3 4 5 6 7 8 9 10 11 12 13 14 15 16
000
FTUS43 KFSD 222320
TAFSUX
TAF
KSUX 222320Z 2300/2324 17015G22KT P6SM SKC
     FM230500 16012KT P6SM SKC WS015/20040KT
     FM231100 15010KT P6SM SKC
     FM231500 16013G19KT P6SM SCT200
     FM231800 16016G24KT P6SM SCT120
     FM232000 16016G26KT P6SM SHRA VCTS BKN070CB
      TEMPO 2320/2324 4SM TSRA BKN040CB=

USA.gov is the U.S. government's official web portal to all federal, state and local government web resources and services.